Missouri City, Texas
Current Conditions -  °F | °C
As of 6:53 PM on Saturday 22 Nov 2014 (Local Time) from KSGR Reporting Station
Overcast Overcast  
Wind Chill: 68°   Ceiling: 4400
Heat Index: 68°   Visibility: 9mi
Dew Point: 65°   Wind: 8mph
Humidity: 90%   Direction: 140°SE
Pressure: 29.8"   Gusts: NA
Location:  29.61°N, 95.53°W
Report Text: KSGR 230053Z 14007KT 9SM SCT019 OVC044 20/18 A2980 RMK AO2 LTG DSNT S RAE11 SLP092 P0005 T02000183
Loading
Personal Weather Stations






























Interactive Weather Map New forecast layout! Learn more

10-Day Weather Forecast

Advertisements
Track Severe Weather on mobile